Time;durP1;ratioP1;P1;durP2;ratioP2;P2;SDS_P1;SDS_P2;PMS_P1;PMS_P2;Temp;Humidity;BMP_temperature;BMP_pressure;BME280_temperature;BME280_humidity;BME280_pressure;Samples;Min_cycle;Max_cycle;Signal;HPM_P1;HPM_P2
2022/01/25 00:32:08;;;;;;;70.95;45.55;;;;;;;;;;5114317;27;20445;-78
2022/01/25 00:34:35;;;;;;;70.82;45.67;;;;;;;;;;5133649;27;20039;-80
2022/01/25 00:37:01;;;;;;;72.60;47.60;;;;;;;;;;5131790;27;20047;-80
2022/01/25 00:39:27;;;;;;;70.35;47.17;;;;;;;;;;5129937;27;20035;-79
2022/01/25 00:41:53;;;;;;;66.70;45.40;;;;;;;;;;5133414;27;20494;-79
2022/01/25 00:44:20;;;;;;;68.78;47.30;;;;;;;;;;5114424;27;20047;-79
2022/01/25 00:46:46;;;;;;;70.20;45.65;;;;;;;;;;5116669;27;20161;-79
2022/01/25 00:49:20;;;;;;;71.18;46.92;;;;;;;;;;5133517;27;20568;-79
2022/01/25 00:51:59;;;;;;;69.15;46.33;;;;;;;;;;5115111;27;20039;-79
2022/01/25 00:54:31;;;;;;;68.38;45.88;;;;;;;;;;5115299;27;20050;-79
2022/01/25 00:56:57;;;;;;;72.65;47.22;;;;;;;;;;5099709;28;20039;-79
2022/01/25 00:59:25;;;;;;;68.20;47.95;;;;;;;;;;5133275;28;20526;-79
2022/01/25 01:01:55;;;;;;;70.13;45.08;;;;;;;;;;5115157;28;20530;-79
2022/01/25 01:04:21;;;;;;;70.57;47.80;;;;;;;;;;5126307;27;20040;-79
2022/01/25 01:06:48;;;;;;;69.72;47.13;;;;;;;;;;5126890;28;20043;-80
2022/01/25 01:09:16;;;;;;;70.90;47.63;;;;;;;;;;5133318;28;20078;-79
2022/01/25 01:11:52;;;;;;;73.57;48.28;;;;;;;;;;5137073;27;20491;-79
2022/01/25 01:14:30;;;;;;;69.82;46.35;;;;;;;;;;5151118;27;20043;-80
2022/01/25 01:41:22;;;;;;;69.25;46.22;;;;;;;;;;5123230;27;20046;-80
2022/01/25 01:43:54;;;;;;;70.85;46.30;;;;;;;;;;5140805;27;20399;-79
2022/01/25 01:51:18;;;;;;;68.47;45.97;;;;;;;;;;5148683;27;20443;-79
2022/01/25 01:53:44;;;;;;;71.70;48.17;;;;;;;;;;5138871;27;20051;-78
2022/01/25 01:56:10;;;;;;;72.90;48.40;;;;;;;;;;5144349;27;20034;-78
2022/01/25 01:58:37;;;;;;;73.03;48.35;;;;;;;;;;5154278;27;20050;-78
2022/01/25 02:01:05;;;;;;;73.07;47.50;;;;;;;;;;5136656;27;20034;-80
2022/01/25 02:03:31;;;;;;;75.70;47.53;;;;;;;;;;5155359;27;20050;-78
2022/01/25 02:05:57;;;;;;;73.45;48.55;;;;;;;;;;5136391;27;20528;-78
2022/01/25 02:08:23;;;;;;;74.10;48.70;;;;;;;;;;5137299;27;20047;-80
2022/01/25 02:10:49;;;;;;;72.57;49.33;;;;;;;;;;5157136;27;20038;-79
2022/01/25 02:13:15;;;;;;;71.38;47.03;;;;;;;;;;5120983;27;20042;-80
2022/01/25 02:15:45;;;;;;;71.60;47.65;;;;;;;;;;5156793;27;20444;-80
2022/01/25 02:23:42;;;;;;;71.32;47.20;;;;;;;;;;5123691;27;20082;-79
2022/01/25 02:26:09;;;;;;;74.00;48.28;;;;;;;;;;5132615;27;20468;-80
2022/01/25 02:28:36;;;;;;;67.47;46.28;;;;;;;;;;5129594;27;20167;-80
2022/01/25 02:31:04;;;;;;;71.40;47.50;;;;;;;;;;5136258;27;20049;-79
2022/01/25 02:33:30;;;;;;;67.93;46.88;;;;;;;;;;5146929;27;20114;-79
2022/01/25 02:35:57;;;;;;;73.50;48.45;;;;;;;;;;5136010;27;20154;-79
2022/01/25 02:38:25;;;;;;;69.95;48.17;;;;;;;;;;5143332;27;20035;-79
2022/01/25 02:40:52;;;;;;;69.53;46.50;;;;;;;;;;5131154;27;20421;-80
2022/01/25 02:43:19;;;;;;;71.30;48.50;;;;;;;;;;5104856;27;20412;-80
2022/01/25 02:46:05;;;;;;;73.60;49.28;;;;;;;;;;5114600;28;20590;-79
2022/01/25 02:48:31;;;;;;;69.72;46.15;;;;;;;;;;5115077;28;20044;-79
2022/01/25 02:50:59;;;;;;;73.20;47.90;;;;;;;;;;5134865;27;20461;-79
2022/01/25 02:53:25;;;;;;;72.93;48.20;;;;;;;;;;5125405;27;20038;-79
2022/01/25 02:55:51;;;;;;;71.32;48.10;;;;;;;;;;5156217;27;20125;-79
2022/01/25 02:58:18;;;;;;;70.75;46.00;;;;;;;;;;5154391;27;20087;-78
2022/01/25 03:00:44;;;;;;;70.38;47.03;;;;;;;;;;5138253;27;20037;-79
2022/01/25 03:03:10;;;;;;;73.97;49.00;;;;;;;;;;5135499;27;20039;-79
2022/01/25 03:05:36;;;;;;;67.72;47.30;;;;;;;;;;5135432;27;20065;-80
2022/01/25 03:08:02;;;;;;;71.28;46.92;;;;;;;;;;5141958;27;20042;-78
2022/01/25 03:10:35;;;;;;;68.60;46.85;;;;;;;;;;5117091;27;20043;-78
2022/01/25 03:13:02;;;;;;;71.05;47.90;;;;;;;;;;5129491;27;20043;-79
2022/01/25 03:16:18;;;;;;;71.60;47.13;;;;;;;;;;5155757;27;20058;-79
2022/01/25 03:18:54;;;;;;;72.68;47.55;;;;;;;;;;5146031;27;20083;-78
2022/01/25 03:21:32;;;;;;;74.63;47.15;;;;;;;;;;5123935;27;20495;-78
2022/01/25 03:23:58;;;;;;;74.45;47.67;;;;;;;;;;5137790;27;20042;-78
2022/01/25 03:26:25;;;;;;;72.18;46.63;;;;;;;;;;5147243;27;20066;-79
2022/01/25 03:28:52;;;;;;;70.30;46.05;;;;;;;;;;5131203;27;20133;-79
2022/01/25 03:31:18;;;;;;;68.70;44.78;;;;;;;;;;5135705;27;20087;-79
2022/01/25 03:33:45;;;;;;;70.88;45.80;;;;;;;;;;5135441;27;20047;-79
2022/01/25 03:36:12;;;;;;;69.00;44.33;;;;;;;;;;5150354;27;20049;-79
2022/01/25 03:38:39;;;;;;;72.05;45.95;;;;;;;;;;5154367;27;20046;-79
2022/01/25 03:41:06;;;;;;;69.72;46.72;;;;;;;;;;5155165;27;20476;-79
2022/01/25 03:43:33;;;;;;;71.70;47.28;;;;;;;;;;5143496;27;20049;-79
2022/01/25 03:46:05;;;;;;;73.82;48.08;;;;;;;;;;5112302;28;20397;-79
2022/01/25 03:50:57;;;;;;;70.35;46.53;;;;;;;;;;5134776;27;20038;-77
2022/01/25 03:53:23;;;;;;;69.70;44.15;;;;;;;;;;5116305;27;20034;-80
2022/01/25 03:55:49;;;;;;;71.57;46.08;;;;;;;;;;5151537;27;20053;-78
2022/01/25 03:58:16;;;;;;;72.57;47.30;;;;;;;;;;5135148;27;20060;-79
2022/01/25 04:00:43;;;;;;;68.88;43.65;;;;;;;;;;5117073;27;20093;-79
2022/01/25 04:03:18;;;;;;;68.15;45.42;;;;;;;;;;5103075;27;20043;-79
2022/01/25 04:08:11;;;;;;;69.28;45.13;;;;;;;;;;5134422;27;20047;-81
2022/01/25 04:10:39;;;;;;;66.80;44.47;;;;;;;;;;5134122;27;20054;-79
2022/01/25 04:13:05;;;;;;;71.70;45.92;;;;;;;;;;5133882;27;20043;-78
2022/01/25 04:15:31;;;;;;;68.30;44.28;;;;;;;;;;5144431;27;20043;-79
2022/01/25 04:18:36;;;;;;;66.68;44.83;;;;;;;;;;5136085;27;20061;-79
2022/01/25 04:21:40;;;;;;;70.65;44.40;;;;;;;;;;5130645;27;20381;-79
2022/01/25 04:26:28;;;;;;;66.78;43.67;;;;;;;;;;5132450;27;20039;-79
2022/01/25 04:28:54;;;;;;;65.03;43.42;;;;;;;;;;5133823;27;20043;-79
2022/01/25 04:31:21;;;;;;;67.97;43.72;;;;;;;;;;5132345;27;20054;-79
2022/01/25 04:34:08;;;;;;;69.85;44.97;;;;;;;;;;5133862;27;20043;-80
2022/01/25 04:50:11;;;;;;;70.55;45.17;;;;;;;;;;5136824;27;20514;-79
2022/01/25 04:53:29;;;;;;;71.47;45.17;;;;;;;;;;5133318;27;20484;-79
2022/01/25 04:55:35;;;;;;;71.95;45.13;;;;;;;;;;5110387;27;20495;-80
2022/01/25 04:58:09;;;;;;;65.88;43.65;;;;;;;;;;5133488;28;20043;-80
2022/01/25 05:00:35;;;;;;;74.40;46.80;;;;;;;;;;5149552;27;20039;-80
2022/01/25 05:03:12;;;;;;;68.90;45.38;;;;;;;;;;5150302;27;20424;-80
2022/01/25 05:08:42;;;;;;;71.75;45.55;;;;;;;;;;5123795;27;20373;-78
2022/01/25 05:11:24;;;;;;;73.05;47.05;;;;;;;;;;5137772;27;20062;-78
2022/01/25 05:13:56;;;;;;;71.60;44.97;;;;;;;;;;5137528;27;20065;-79
2022/01/25 05:16:34;;;;;;;70.85;45.75;;;;;;;;;;5137360;27;20051;-79
2022/01/25 05:19:22;;;;;;;75.15;46.80;;;;;;;;;;5158358;27;20199;-79
2022/01/25 05:24:31;;;;;;;71.80;44.83;;;;;;;;;;5121409;27;20050;-79
2022/01/25 05:26:57;;;;;;;70.93;44.95;;;;;;;;;;5120742;27;20046;-79
2022/01/25 05:29:23;;;;;;;74.55;46.33;;;;;;;;;;5149506;27;20078;-78
2022/01/25 05:31:49;;;;;;;72.40;46.67;;;;;;;;;;5124611;27;20079;-79
2022/01/25 05:34:16;;;;;;;74.45;46.28;;;;;;;;;;5136969;27;20043;-79
2022/01/25 05:36:43;;;;;;;75.90;46.17;;;;;;;;;;5137487;27;20361;-80
2022/01/25 05:39:17;;;;;;;80.72;49.15;;;;;;;;;;5136931;27;20095;-79
2022/01/25 05:41:46;;;;;;;76.20;46.83;;;;;;;;;;5123360;27;20057;-78
2022/01/25 05:47:26;;;;;;;83.82;49.00;;;;;;;;;;5136889;27;20658;-79
2022/01/25 05:49:31;;;;;;;76.97;47.00;;;;;;;;;;5110627;27;20051;-79
2022/01/25 05:51:57;;;;;;;77.35;46.95;;;;;;;;;;5097924;28;20083;-79
2022/01/25 05:54:23;;;;;;;79.18;47.78;;;;;;;;;;5097833;28;20043;-80
2022/01/25 05:56:50;;;;;;;84.40;50.15;;;;;;;;;;5154433;27;20034;-79
2022/01/25 05:59:16;;;;;;;86.47;50.83;;;;;;;;;;5138991;27;20041;-79
2022/01/25 06:01:44;;;;;;;77.00;48.67;;;;;;;;;;5156242;27;20046;-80
2022/01/25 06:04:10;;;;;;;82.82;49.38;;;;;;;;;;5149709;27;20043;-80
2022/01/25 06:06:36;;;;;;;79.18;47.20;;;;;;;;;;5136780;27;20042;-80
2022/01/25 06:09:03;;;;;;;80.53;49.75;;;;;;;;;;5141900;27;20043;-80
2022/01/25 06:11:29;;;;;;;91.15;53.88;;;;;;;;;;5152227;27;20041;-78
2022/01/25 06:13:56;;;;;;;84.65;50.15;;;;;;;;;;5152627;27;20042;-80
2022/01/25 06:16:22;;;;;;;75.70;46.75;;;;;;;;;;5135826;27;20567;-79
2022/01/25 06:18:48;;;;;;;75.47;46.42;;;;;;;;;;5154720;27;20507;-79
2022/01/25 06:21:14;;;;;;;75.78;45.97;;;;;;;;;;5155998;27;20050;-79
2022/01/25 06:23:40;;;;;;;79.75;48.45;;;;;;;;;;5155943;27;20357;-79
2022/01/25 06:26:06;;;;;;;76.40;46.13;;;;;;;;;;5136591;27;20039;-78
2022/01/25 06:28:32;;;;;;;85.00;53.05;;;;;;;;;;5156809;27;20061;-78
2022/01/25 06:30:58;;;;;;;87.65;51.22;;;;;;;;;;5144029;27;20122;-80
2022/01/25 06:33:25;;;;;;;81.50;49.17;;;;;;;;;;5118062;27;20047;-79
2022/01/25 06:35:51;;;;;;;75.22;46.10;;;;;;;;;;5136163;27;20043;-78
2022/01/25 06:38:17;;;;;;;73.85;45.67;;;;;;;;;;5135717;27;20046;-78
2022/01/25 06:40:43;;;;;;;72.53;44.58;;;;;;;;;;5140277;27;20050;-79
2022/01/25 06:43:09;;;;;;;76.28;45.45;;;;;;;;;;5135781;27;20043;-80
2022/01/25 06:45:39;;;;;;;75.15;46.00;;;;;;;;;;5122635;27;20054;-76
2022/01/25 06:48:06;;;;;;;77.80;47.25;;;;;;;;;;5136542;27;20477;-80
2022/01/25 06:50:32;;;;;;;76.05;45.85;;;;;;;;;;5135598;27;20093;-81
2022/01/25 06:52:58;;;;;;;72.93;44.58;;;;;;;;;;5117430;27;20043;-79
2022/01/25 06:55:24;;;;;;;75.25;45.50;;;;;;;;;;5135659;27;20035;-79
2022/01/25 06:57:51;;;;;;;75.50;45.80;;;;;;;;;;5137369;27;20759;-79
2022/01/25 07:00:19;;;;;;;72.30;43.53;;;;;;;;;;5156048;27;20692;-79
2022/01/25 07:02:45;;;;;;;74.68;45.50;;;;;;;;;;5136655;27;20034;-79
2022/01/25 07:05:11;;;;;;;76.18;46.00;;;;;;;;;;5156087;27;20391;-79
2022/01/25 07:07:38;;;;;;;77.97;46.25;;;;;;;;;;5156244;27;20042;-80
2022/01/25 07:10:04;;;;;;;72.85;45.15;;;;;;;;;;5136699;27;20046;-79
2022/01/25 07:12:30;;;;;;;72.47;45.33;;;;;;;;;;5129855;27;20042;-79
2022/01/25 07:14:56;;;;;;;77.68;45.33;;;;;;;;;;5149708;27;20053;-79
2022/01/25 07:17:23;;;;;;;73.60;44.97;;;;;;;;;;5134960;27;20051;-78
2022/01/25 07:19:50;;;;;;;70.43;43.38;;;;;;;;;;5116982;27;20095;-79
2022/01/25 07:22:16;;;;;;;74.65;45.10;;;;;;;;;;5134912;27;20046;-79
2022/01/25 07:24:42;;;;;;;76.32;45.78;;;;;;;;;;5116847;27;20417;-79
2022/01/25 07:27:08;;;;;;;74.07;43.13;;;;;;;;;;5154565;27;20074;-79
2022/01/25 07:29:34;;;;;;;73.03;45.80;;;;;;;;;;5111220;27;20123;-79
2022/01/25 07:32:00;;;;;;;74.18;46.08;;;;;;;;;;5114756;27;20040;-79
2022/01/25 07:34:27;;;;;;;76.97;45.83;;;;;;;;;;5114063;27;20498;-79
2022/01/25 07:36:53;;;;;;;75.03;46.10;;;;;;;;;;5126715;27;20415;-78
2022/01/25 07:39:19;;;;;;;78.95;46.90;;;;;;;;;;5125125;27;20034;-79
2022/01/25 07:41:46;;;;;;;75.78;45.13;;;;;;;;;;5135400;27;20488;-79
2022/01/25 07:44:12;;;;;;;75.47;46.03;;;;;;;;;;5118598;27;20051;-79
2022/01/25 07:46:39;;;;;;;75.43;46.42;;;;;;;;;;5113906;28;20147;-78
2022/01/25 07:49:05;;;;;;;74.07;46.53;;;;;;;;;;5128364;27;20056;-79
2022/01/25 07:51:31;;;;;;;73.93;44.22;;;;;;;;;;5105736;28;20044;-78
2022/01/25 07:54:05;;;;;;;75.72;44.58;;;;;;;;;;5164830;27;20110;-78
2022/01/25 07:56:31;;;;;;;75.82;47.22;;;;;;;;;;5151446;27;20070;-79
2022/01/25 07:58:57;;;;;;;77.15;47.28;;;;;;;;;;5116668;28;20063;-79
2022/01/25 08:01:24;;;;;;;76.32;46.38;;;;;;;;;;5135055;27;20417;-79
2022/01/25 08:03:50;;;;;;;79.72;48.10;;;;;;;;;;5150728;27;20083;-79
2022/01/25 08:06:16;;;;;;;84.60;49.47;;;;;;;;;;5150304;27;20035;-79
2022/01/25 08:08:43;;;;;;;76.38;45.83;;;;;;;;;;5150752;27;20556;-79
2022/01/25 08:11:09;;;;;;;75.15;45.33;;;;;;;;;;5137691;27;20051;-78
2022/01/25 08:13:38;;;;;;;83.97;48.65;;;;;;;;;;5132208;27;20119;-78
2022/01/25 08:16:04;;;;;;;79.60;46.45;;;;;;;;;;5148732;27;20496;-80
2022/01/25 08:18:30;;;;;;;72.57;44.30;;;;;;;;;;5131734;27;20046;-79
2022/01/25 08:20:56;;;;;;;77.78;47.08;;;;;;;;;;5150379;27;20133;-80
2022/01/25 08:23:23;;;;;;;72.10;44.65;;;;;;;;;;5151110;27;20121;-78
2022/01/25 08:25:49;;;;;;;77.35;46.30;;;;;;;;;;5151018;27;20047;-79
2022/01/25 08:28:16;;;;;;;77.80;45.95;;;;;;;;;;5151148;27;20035;-79
2022/01/25 08:30:42;;;;;;;73.68;45.50;;;;;;;;;;5132339;27;20051;-79
2022/01/25 08:33:08;;;;;;;78.25;46.88;;;;;;;;;;5150611;27;20475;-79
2022/01/25 08:35:35;;;;;;;76.72;46.35;;;;;;;;;;5150657;27;20082;-80
2022/01/25 08:38:01;;;;;;;77.65;45.75;;;;;;;;;;5132466;27;20087;-78
2022/01/25 08:40:29;;;;;;;77.90;47.08;;;;;;;;;;5150852;27;20121;-79
2022/01/25 08:42:55;;;;;;;78.28;46.75;;;;;;;;;;5132489;27;20082;-79
2022/01/25 08:45:21;;;;;;;74.95;45.75;;;;;;;;;;5132256;27;20043;-79
2022/01/25 08:47:47;;;;;;;81.95;46.72;;;;;;;;;;5150533;27;20433;-79
2022/01/25 08:50:14;;;;;;;73.75;45.40;;;;;;;;;;5150430;27;20130;-78
2022/01/25 08:52:41;;;;;;;74.90;46.28;;;;;;;;;;5149902;27;20551;-78
2022/01/25 08:55:07;;;;;;;70.63;42.70;;;;;;;;;;5150381;27;20047;-78
2022/01/25 08:57:34;;;;;;;74.13;45.00;;;;;;;;;;5150283;27;20117;-79
2022/01/25 09:00:00;;;;;;;76.85;45.15;;;;;;;;;;5150285;27;20141;-80
2022/01/25 09:02:27;;;;;;;76.90;44.80;;;;;;;;;;5131634;27;20121;-79
2022/01/25 09:04:53;;;;;;;71.35;43.00;;;;;;;;;;5129418;27;20039;-78
2022/01/25 09:07:19;;;;;;;74.13;43.97;;;;;;;;;;5115739;28;20039;-78
2022/01/25 09:09:45;;;;;;;74.50;44.42;;;;;;;;;;5127954;27;20445;-79
2022/01/25 09:12:11;;;;;;;74.72;43.05;;;;;;;;;;5136166;27;20125;-79
2022/01/25 09:14:37;;;;;;;70.13;43.33;;;;;;;;;;5111275;28;20040;-79
2022/01/25 09:17:07;;;;;;;74.38;45.35;;;;;;;;;;5122805;27;20084;-78
2022/01/25 09:19:34;;;;;;;80.60;47.50;;;;;;;;;;5117947;27;20039;-79
2022/01/25 09:22:00;;;;;;;78.43;45.72;;;;;;;;;;5111201;28;20499;-79
2022/01/25 09:24:28;;;;;;;83.88;48.25;;;;;;;;;;5097748;28;20492;-79
2022/01/25 09:26:54;;;;;;;71.07;43.08;;;;;;;;;;5118882;27;20086;-79
2022/01/25 09:29:20;;;;;;;79.20;48.05;;;;;;;;;;5115439;27;20551;-79
2022/01/25 09:31:46;;;;;;;77.30;44.97;;;;;;;;;;5115289;27;20474;-80
2022/01/25 09:34:12;;;;;;;75.50;44.45;;;;;;;;;;5100545;27;20074;-78
2022/01/25 09:36:39;;;;;;;79.82;44.78;;;;;;;;;;5134925;27;20035;-80
2022/01/25 09:39:05;;;;;;;77.97;46.13;;;;;;;;;;5118489;27;20045;-80
2022/01/25 09:41:31;;;;;;;77.07;46.08;;;;;;;;;;5114992;28;20079;-80
2022/01/25 09:43:58;;;;;;;78.65;47.17;;;;;;;;;;5115144;27;20049;-79
2022/01/25 09:46:24;;;;;;;76.20;45.90;;;;;;;;;;5096722;28;20050;-80
2022/01/25 09:48:51;;;;;;;80.35;45.20;;;;;;;;;;5133902;27;20400;-79
2022/01/25 09:51:19;;;;;;;73.82;45.92;;;;;;;;;;5135766;27;20047;-79
2022/01/25 09:53:45;;;;;;;74.95;45.15;;;;;;;;;;5134993;27;20440;-79
2022/01/25 09:56:11;;;;;;;77.85;44.55;;;;;;;;;;5117499;27;20051;-80
2022/01/25 09:58:37;;;;;;;73.88;43.00;;;;;;;;;;5135396;27;20171;-79
2022/01/25 10:01:05;;;;;;;74.00;43.75;;;;;;;;;;5135314;27;20043;-79
2022/01/25 10:03:35;;;;;;;72.28;43.13;;;;;;;;;;5135440;27;20564;-79
2022/01/25 10:06:02;;;;;;;75.15;44.42;;;;;;;;;;5100103;27;20043;-79
2022/01/25 10:08:31;;;;;;;70.13;41.92;;;;;;;;;;5135109;27;20637;-79
2022/01/25 10:10:58;;;;;;;75.43;42.47;;;;;;;;;;5134944;27;20057;-79
2022/01/25 10:13:26;;;;;;;71.53;42.88;;;;;;;;;;5116820;27;20050;-78
2022/01/25 10:16:12;;;;;;;70.97;42.58;;;;;;;;;;5133949;27;20031;-78
2022/01/25 10:18:38;;;;;;;72.55;40.90;;;;;;;;;;5134932;27;20050;-79
2022/01/25 10:21:09;;;;;;;72.38;42.40;;;;;;;;;;5134836;27;20130;-79
2022/01/25 10:23:35;;;;;;;73.70;42.92;;;;;;;;;;5134774;27;20544;-79
2022/01/25 10:26:02;;;;;;;72.25;43.08;;;;;;;;;;5134550;27;20464;-79
2022/01/25 10:28:30;;;;;;;74.82;42.50;;;;;;;;;;5134479;27;20047;-79
2022/01/25 10:31:00;;;;;;;74.28;45.13;;;;;;;;;;5134663;27;20043;-79
2022/01/25 10:33:27;;;;;;;74.47;43.53;;;;;;;;;;5134453;27;20127;-80
2022/01/25 10:35:54;;;;;;;76.10;43.72;;;;;;;;;;5134648;27;20522;-80
2022/01/25 10:38:25;;;;;;;74.45;43.35;;;;;;;;;;5134640;27;20035;-79
2022/01/25 10:40:55;;;;;;;69.72;42.50;;;;;;;;;;5116048;27;20071;-80
2022/01/25 10:43:23;;;;;;;77.47;43.13;;;;;;;;;;5134819;27;20437;-80
2022/01/25 10:46:03;;;;;;;81.15;45.22;;;;;;;;;;5116351;27;20514;-78
2022/01/25 10:48:30;;;;;;;77.25;44.17;;;;;;;;;;5134523;27;20035;-80
2022/01/25 10:51:10;;;;;;;82.10;46.90;;;;;;;;;;5134142;27;20043;-79
2022/01/25 10:53:36;;;;;;;81.28;45.03;;;;;;;;;;5098804;27;20053;-79
2022/01/25 10:56:03;;;;;;;71.88;42.22;;;;;;;;;;5115998;27;20043;-79
2022/01/25 10:58:29;;;;;;;77.72;43.65;;;;;;;;;;5115927;27;20070;-79
2022/01/25 11:00:56;;;;;;;79.32;44.13;;;;;;;;;;5134084;27;20040;-79
2022/01/25 11:03:29;;;;;;;76.32;44.88;;;;;;;;;;5133953;27;20039;-78
2022/01/25 11:05:56;;;;;;;75.63;43.75;;;;;;;;;;5133967;27;20123;-80
2022/01/25 11:08:23;;;;;;;79.55;44.10;;;;;;;;;;5115431;27;20046;-78
2022/01/25 11:11:01;;;;;;;79.07;44.55;;;;;;;;;;5133950;27;20537;-78
2022/01/25 11:15:57;;;;;;;80.40;45.75;;;;;;;;;;5115619;27;20051;-79
2022/01/25 11:18:23;;;;;;;75.72;44.55;;;;;;;;;;5133863;27;20043;-79
2022/01/25 11:20:51;;;;;;;78.82;43.30;;;;;;;;;;5115887;27;20095;-78
2022/01/25 11:23:18;;;;;;;78.88;44.80;;;;;;;;;;5133883;27;20126;-79
2022/01/25 11:25:45;;;;;;;79.10;45.25;;;;;;;;;;5115565;27;20057;-78
2022/01/25 11:28:12;;;;;;;78.40;44.38;;;;;;;;;;5133490;27;20153;-79
2022/01/25 11:30:40;;;;;;;83.82;45.85;;;;;;;;;;5115427;27;20049;-79
2022/01/25 11:33:07;;;;;;;78.20;43.83;;;;;;;;;;5133913;27;20047;-79
2022/01/25 11:35:33;;;;;;;77.20;44.90;;;;;;;;;;5098680;27;20047;-79
2022/01/25 11:37:59;;;;;;;77.30;44.58;;;;;;;;;;5133735;27;20506;-79
2022/01/25 11:40:31;;;;;;;82.00;46.03;;;;;;;;;;5133498;27;20085;-79
2022/01/25 11:43:06;;;;;;;78.28;43.60;;;;;;;;;;5133450;27;20540;-78
2022/01/25 11:45:33;;;;;;;77.85;43.60;;;;;;;;;;5133399;27;20068;-80
2022/01/25 11:47:59;;;;;;;72.53;42.95;;;;;;;;;;5115476;27;20361;-80
2022/01/25 11:50:27;;;;;;;82.53;43.80;;;;;;;;;;5133629;27;20476;-79
2022/01/25 11:52:54;;;;;;;83.03;44.17;;;;;;;;;;5133307;28;20059;-79
2022/01/25 11:55:21;;;;;;;75.80;41.47;;;;;;;;;;5133449;28;20053;-79
2022/01/25 11:58:03;;;;;;;75.57;44.80;;;;;;;;;;5133267;28;20057;-78
2022/01/25 12:00:49;;;;;;;81.13;44.15;;;;;;;;;;5115340;28;20476;-79
2022/01/25 12:03:27;;;;;;;81.78;42.97;;;;;;;;;;5115152;28;20043;-79
2022/01/25 12:05:55;;;;;;;79.22;43.47;;;;;;;;;;5133332;28;20062;-79
2022/01/25 12:08:37;;;;;;;78.03;43.42;;;;;;;;;;5133188;28;20054;-79
2022/01/25 12:11:23;;;;;;;73.95;41.97;;;;;;;;;;5133083;28;20125;-79
2022/01/25 12:14:09;;;;;;;83.70;44.38;;;;;;;;;;5133108;28;20043;-79
2022/01/25 12:16:43;;;;;;;80.28;44.63;;;;;;;;;;5132859;28;20476;-79
2022/01/25 12:19:09;;;;;;;79.88;45.65;;;;;;;;;;5115062;28;20083;-78
2022/01/25 12:21:52;;;;;;;75.32;43.15;;;;;;;;;;5133196;28;20050;-78
2022/01/25 12:24:19;;;;;;;80.20;45.80;;;;;;;;;;5114962;28;20051;-78
2022/01/25 12:27:07;;;;;;;81.15;43.88;;;;;;;;;;5133111;28;20059;-79
2022/01/25 12:29:35;;;;;;;84.28;45.70;;;;;;;;;;5133335;28;20042;-80
2022/01/25 12:32:20;;;;;;;76.57;43.28;;;;;;;;;;5114742;28;20078;-79
2022/01/25 12:34:59;;;;;;;79.78;44.33;;;;;;;;;;5097653;28;20611;-79
2022/01/25 12:37:43;;;;;;;79.78;44.05;;;;;;;;;;5132984;28;20091;-79
2022/01/25 12:40:25;;;;;;;71.55;42.33;;;;;;;;;;5100326;27;20043;-79
2022/01/25 12:42:55;;;;;;;75.63;42.28;;;;;;;;;;5137277;27;20092;-79
2022/01/25 12:45:22;;;;;;;80.35;43.03;;;;;;;;;;5118566;27;20103;-78
2022/01/25 12:47:52;;;;;;;77.72;42.25;;;;;;;;;;5136840;27;20065;-78
2022/01/25 12:50:18;;;;;;;76.80;44.08;;;;;;;;;;5136868;27;20039;-80
2022/01/25 12:52:45;;;;;;;79.90;42.63;;;;;;;;;;5136424;27;20504;-79
2022/01/25 12:55:12;;;;;;;74.85;43.30;;;;;;;;;;5136518;27;20083;-78
2022/01/25 12:57:38;;;;;;;78.72;42.58;;;;;;;;;;5136659;27;20064;-79
2022/01/25 13:00:05;;;;;;;81.38;42.47;;;;;;;;;;5136608;27;20043;-78
2022/01/25 13:02:31;;;;;;;82.03;43.60;;;;;;;;;;5136385;27;20046;-80
2022/01/25 13:04:57;;;;;;;81.95;43.53;;;;;;;;;;5136663;27;20122;-80
2022/01/25 13:07:23;;;;;;;77.85;43.70;;;;;;;;;;5136405;27;20039;-79
2022/01/25 13:09:54;;;;;;;81.03;44.00;;;;;;;;;;5136487;27;20039;-79
2022/01/25 13:12:29;;;;;;;74.72;41.55;;;;;;;;;;5136337;27;20079;-79
2022/01/25 13:17:53;;;;;;;76.57;41.60;;;;;;;;;;5101388;27;20054;-79
2022/01/25 13:20:22;;;;;;;85.43;44.05;;;;;;;;;;5136237;27;20437;-79
2022/01/25 13:22:48;;;;;;;78.38;43.35;;;;;;;;;;5118014;27;20035;-77
2022/01/25 13:31:09;;;;;;;77.35;41.13;;;;;;;;;;5130998;27;20103;-79
2022/01/25 13:33:36;;;;;;;82.93;43.08;;;;;;;;;;5135640;27;20043;-78
2022/01/25 13:36:03;;;;;;;76.93;41.95;;;;;;;;;;5136193;27;20050;-78
2022/01/25 13:38:35;;;;;;;75.38;41.80;;;;;;;;;;5135744;27;20119;-78
2022/01/25 13:45:57;;;;;;;83.13;43.67;;;;;;;;;;5135503;27;20050;-78
2022/01/25 13:48:26;;;;;;;76.25;42.22;;;;;;;;;;5117440;27;20051;-79
2022/01/25 13:50:56;;;;;;;79.40;43.17;;;;;;;;;;5135499;27;20480;-79
2022/01/25 13:53:23;;;;;;;79.38;43.75;;;;;;;;;;5135206;27;20527;-79
2022/01/25 13:55:50;;;;;;;82.35;41.28;;;;;;;;;;5135601;27;20039;-79
2022/01/25 13:58:23;;;;;;;83.35;44.97;;;;;;;;;;5135636;27;20311;-79
2022/01/25 14:00:49;;;;;;;80.80;44.22;;;;;;;;;;5135338;27;20050;-79
2022/01/25 14:03:16;;;;;;;79.65;43.58;;;;;;;;;;5135489;27;20039;-78
2022/01/25 14:05:43;;;;;;;80.63;44.35;;;;;;;;;;5117168;27;20054;-80
2022/01/25 14:08:09;;;;;;;74.38;41.50;;;;;;;;;;5135192;27;20039;-81
2022/01/25 14:10:35;;;;;;;78.70;43.25;;;;;;;;;;5116868;27;20039;-80
2022/01/25 14:24:12;;;;;;;80.63;42.70;;;;;;;;;;5135110;27;20043;-79
2022/01/25 14:26:40;;;;;;;81.13;43.35;;;;;;;;;;5134863;27;20042;-78
2022/01/25 14:29:17;;;;;;;78.18;43.05;;;;;;;;;;5134913;27;20039;-79
2022/01/25 14:31:46;;;;;;;79.50;43.42;;;;;;;;;;5134757;27;20043;-79
2022/01/25 14:34:13;;;;;;;75.68;42.25;;;;;;;;;;5134504;27;20047;-79
2022/01/25 14:36:42;;;;;;;78.00;43.85;;;;;;;;;;5134833;27;20100;-80
2022/01/25 14:39:09;;;;;;;79.18;43.70;;;;;;;;;;5134676;27;20091;-79
2022/01/25 14:41:37;;;;;;;83.47;43.85;;;;;;;;;;5134679;27;20140;-79
2022/01/25 14:44:22;;;;;;;80.38;43.38;;;;;;;;;;5134665;27;20082;-80
2022/01/25 14:46:52;;;;;;;79.47;43.72;;;;;;;;;;5134780;27;20043;-79
2022/01/25 14:49:30;;;;;;;82.45;43.90;;;;;;;;;;5134432;27;20365;-80
2022/01/25 14:51:59;;;;;;;81.70;43.20;;;;;;;;;;5134063;27;20065;-79
2022/01/25 14:54:27;;;;;;;83.75;44.75;;;;;;;;;;5134328;27;20047;-79
2022/01/25 14:56:56;;;;;;;80.88;43.25;;;;;;;;;;5134055;27;20096;-79
2022/01/25 14:59:25;;;;;;;84.18;44.50;;;;;;;;;;5134331;27;20046;-79
2022/01/25 15:02:02;;;;;;;83.72;43.10;;;;;;;;;;5133738;27;20050;-79
2022/01/25 15:04:31;;;;;;;87.68;43.78;;;;;;;;;;5115865;27;20032;-80
2022/01/25 15:06:58;;;;;;;78.05;41.97;;;;;;;;;;5134018;27;20047;-80
2022/01/25 15:09:24;;;;;;;83.30;44.35;;;;;;;;;;5133881;27;20078;-80
2022/01/25 15:11:52;;;;;;;84.47;43.85;;;;;;;;;;5134310;27;20145;-80
2022/01/25 15:14:21;;;;;;;81.03;43.83;;;;;;;;;;5134108;27;20373;-80
2022/01/25 15:16:47;;;;;;;81.40;42.08;;;;;;;;;;5134095;27;20043;-80
2022/01/25 15:19:18;;;;;;;90.88;43.13;;;;;;;;;;5115760;27;20047;-78
2022/01/25 15:21:46;;;;;;;81.35;43.58;;;;;;;;;;5133828;27;20043;-80
2022/01/25 15:24:12;;;;;;;80.90;41.38;;;;;;;;;;5133680;27;20043;-80
2022/01/25 15:26:38;;;;;;;74.57;41.35;;;;;;;;;;5133971;27;20126;-80
2022/01/25 15:29:07;;;;;;;76.68;41.42;;;;;;;;;;5133699;27;20043;-79
2022/01/25 15:31:33;;;;;;;76.75;42.65;;;;;;;;;;5133745;27;20476;-79
2022/01/25 15:33:59;;;;;;;74.68;40.45;;;;;;;;;;5133781;27;20043;-79
2022/01/25 15:36:25;;;;;;;76.95;41.22;;;;;;;;;;5133437;27;20481;-79
2022/01/25 15:38:52;;;;;;;75.82;40.78;;;;;;;;;;5115171;27;20042;-80
2022/01/25 15:41:22;;;;;;;80.10;41.42;;;;;;;;;;5115306;27;20031;-79
2022/01/25 15:43:51;;;;;;;80.65;43.63;;;;;;;;;;5115174;27;20035;-78
2022/01/25 15:46:34;;;;;;;81.63;41.25;;;;;;;;;;5114762;28;20095;-79
2022/01/25 15:49:05;;;;;;;85.18;41.63;;;;;;;;;;5114343;28;20042;-79
2022/01/25 15:51:31;;;;;;;81.40;41.03;;;;;;;;;;5133687;27;20046;-79
2022/01/25 15:53:58;;;;;;;80.40;41.95;;;;;;;;;;5132911;28;20488;-79
2022/01/25 15:56:25;;;;;;;81.75;43.55;;;;;;;;;;5133322;28;20142;-78
2022/01/25 15:58:52;;;;;;;71.65;39.97;;;;;;;;;;5133749;28;20349;-78
2022/01/25 16:01:18;;;;;;;80.10;41.53;;;;;;;;;;5133430;28;20063;-79
2022/01/25 16:03:44;;;;;;;84.15;43.13;;;;;;;;;;5114972;28;20046;-79
2022/01/25 16:06:11;;;;;;;84.32;42.58;;;;;;;;;;5133384;28;20126;-78
2022/01/25 16:08:37;;;;;;;81.93;43.95;;;;;;;;;;5114830;28;20120;-80
2022/01/25 16:11:11;;;;;;;82.55;42.28;;;;;;;;;;5133299;28;20038;-78
2022/01/25 16:13:37;;;;;;;80.82;41.20;;;;;;;;;;5133277;27;20096;-78
2022/01/25 16:16:04;;;;;;;79.00;42.20;;;;;;;;;;5118900;27;20083;-80
2022/01/25 16:18:30;;;;;;;81.00;43.17;;;;;;;;;;5102075;27;20254;-79
2022/01/25 16:20:56;;;;;;;78.47;41.92;;;;;;;;;;5137401;27;20043;-79
2022/01/25 16:23:22;;;;;;;78.25;40.40;;;;;;;;;;5137112;27;20051;-80
2022/01/25 16:25:48;;;;;;;80.45;40.58;;;;;;;;;;5118635;27;20054;-80
2022/01/25 16:28:14;;;;;;;79.72;41.92;;;;;;;;;;5118913;27;20361;-80